sensor_id;sensor_type;location;lat;lon;timestamp;P1;durP1;ratioP1;P2;durP2;ratioP2
5167;SDS011;2603;48.918;8.980;2023-01-04T00:02:00;17.00;;;11.00;;
5167;SDS011;2603;48.918;8.980;2023-01-04T00:04:28;13.20;;;9.40;;
5167;SDS011;2603;48.918;8.980;2023-01-04T00:06:54;15.23;;;9.27;;
5167;SDS011;2603;48.918;8.980;2023-01-04T00:09:21;14.17;;;10.10;;
5167;SDS011;2603;48.918;8.980;2023-01-04T00:11:48;14.47;;;8.70;;
5167;SDS011;2603;48.918;8.980;2023-01-04T00:14:14;14.80;;;9.07;;
5167;SDS011;2603;48.918;8.980;2023-01-04T00:16:43;16.53;;;10.73;;
5167;SDS011;2603;48.918;8.980;2023-01-04T00:19:10;16.50;;;9.37;;
5167;SDS011;2603;48.918;8.980;2023-01-04T00:21:38;17.10;;;9.80;;
5167;SDS011;2603;48.918;8.980;2023-01-04T00:24:04;16.97;;;10.33;;
5167;SDS011;2603;48.918;8.980;2023-01-04T00:26:33;20.60;;;11.23;;
5167;SDS011;2603;48.918;8.980;2023-01-04T00:29:01;18.63;;;10.80;;
5167;SDS011;2603;48.918;8.980;2023-01-04T00:31:29;16.53;;;9.87;;
5167;SDS011;2603;48.918;8.980;2023-01-04T00:33:56;18.43;;;9.80;;
5167;SDS011;2603;48.918;8.980;2023-01-04T00:36:23;22.40;;;10.57;;
5167;SDS011;2603;48.918;8.980;2023-01-04T00:38:52;14.90;;;10.43;;
5167;SDS011;2603;48.918;8.980;2023-01-04T00:41:32;12.90;;;9.60;;
5167;SDS011;2603;48.918;8.980;2023-01-04T00:43:59;19.80;;;9.93;;
5167;SDS011;2603;48.918;8.980;2023-01-04T00:46:27;18.67;;;10.47;;
5167;SDS011;2603;48.918;8.980;2023-01-04T00:48:54;14.87;;;9.97;;
5167;SDS011;2603;48.918;8.980;2023-01-04T00:51:20;16.50;;;9.87;;
5167;SDS011;2603;48.918;8.980;2023-01-04T00:53:46;18.07;;;10.30;;
5167;SDS011;2603;48.918;8.980;2023-01-04T00:56:14;13.63;;;9.47;;
5167;SDS011;2603;48.918;8.980;2023-01-04T00:58:41;16.47;;;9.77;;
5167;SDS011;2603;48.918;8.980;2023-01-04T01:01:07;16.57;;;9.80;;
5167;SDS011;2603;48.918;8.980;2023-01-04T01:03:34;12.83;;;8.90;;
5167;SDS011;2603;48.918;8.980;2023-01-04T01:06:01;13.50;;;9.00;;
5167;SDS011;2603;48.918;8.980;2023-01-04T01:08:27;14.70;;;9.40;;
5167;SDS011;2603;48.918;8.980;2023-01-04T01:10:54;16.90;;;9.20;;
5167;SDS011;2603;48.918;8.980;2023-01-04T01:13:22;15.10;;;9.20;;
5167;SDS011;2603;48.918;8.980;2023-01-04T01:15:48;17.23;;;8.90;;
5167;SDS011;2603;48.918;8.980;2023-01-04T01:18:15;13.77;;;8.30;;
5167;SDS011;2603;48.918;8.980;2023-01-04T01:20:41;18.37;;;10.17;;
5167;SDS011;2603;48.918;8.980;2023-01-04T01:23:09;12.17;;;9.07;;
5167;SDS011;2603;48.918;8.980;2023-01-04T01:25:36;18.70;;;10.20;;
5167;SDS011;2603;48.918;8.980;2023-01-04T01:28:03;20.30;;;10.53;;
5167;SDS011;2603;48.918;8.980;2023-01-04T01:30:31;13.27;;;9.10;;
5167;SDS011;2603;48.918;8.980;2023-01-04T01:32:57;16.67;;;9.93;;
5167;SDS011;2603;48.918;8.980;2023-01-04T01:35:24;14.20;;;9.83;;
5167;SDS011;2603;48.918;8.980;2023-01-04T01:37:50;17.37;;;10.93;;
5167;SDS011;2603;48.918;8.980;2023-01-04T01:40:17;17.10;;;10.57;;
5167;SDS011;2603;48.918;8.980;2023-01-04T01:42:43;15.43;;;9.00;;
5167;SDS011;2603;48.918;8.980;2023-01-04T01:45:21;16.07;;;10.60;;
5167;SDS011;2603;48.918;8.980;2023-01-04T01:47:51;15.60;;;10.23;;
5167;SDS011;2603;48.918;8.980;2023-01-04T01:50:21;16.60;;;10.40;;
5167;SDS011;2603;48.918;8.980;2023-01-04T01:52:49;11.97;;;8.87;;
5167;SDS011;2603;48.918;8.980;2023-01-04T01:55:17;15.73;;;10.10;;
5167;SDS011;2603;48.918;8.980;2023-01-04T01:57:43;14.60;;;9.40;;
5167;SDS011;2603;48.918;8.980;2023-01-04T02:00:14;14.87;;;9.73;;
5167;SDS011;2603;48.918;8.980;2023-01-04T02:02:43;19.37;;;11.23;;
5167;SDS011;2603;48.918;8.980;2023-01-04T02:05:16;20.63;;;11.37;;
5167;SDS011;2603;48.918;8.980;2023-01-04T02:07:43;20.57;;;12.07;;
5167;SDS011;2603;48.918;8.980;2023-01-04T02:10:10;16.97;;;12.10;;
5167;SDS011;2603;48.918;8.980;2023-01-04T02:12:37;21.50;;;11.90;;
5167;SDS011;2603;48.918;8.980;2023-01-04T02:15:03;24.87;;;11.80;;
5167;SDS011;2603;48.918;8.980;2023-01-04T02:17:33;31.60;;;14.33;;
5167;SDS011;2603;48.918;8.980;2023-01-04T02:20:06;37.10;;;14.93;;
5167;SDS011;2603;48.918;8.980;2023-01-04T02:22:53;17.70;;;10.63;;
5167;SDS011;2603;48.918;8.980;2023-01-04T02:25:54;21.03;;;10.27;;
5167;SDS011;2603;48.918;8.980;2023-01-04T02:28:48;28.90;;;12.80;;
5167;SDS011;2603;48.918;8.980;2023-01-04T02:31:40;37.00;;;16.63;;
5167;SDS011;2603;48.918;8.980;2023-01-04T02:34:12;46.53;;;18.37;;
5167;SDS011;2603;48.918;8.980;2023-01-04T02:36:44;57.77;;;21.57;;
5167;SDS011;2603;48.918;8.980;2023-01-04T02:39:17;46.53;;;17.00;;
5167;SDS011;2603;48.918;8.980;2023-01-04T02:41:49;44.87;;;17.27;;
5167;SDS011;2603;48.918;8.980;2023-01-04T02:44:18;30.03;;;14.77;;
5167;SDS011;2603;48.918;8.980;2023-01-04T02:47:10;25.10;;;13.53;;
5167;SDS011;2603;48.918;8.980;2023-01-04T02:49:39;24.77;;;11.50;;
5167;SDS011;2603;48.918;8.980;2023-01-04T02:52:23;22.33;;;12.33;;
5167;SDS011;2603;48.918;8.980;2023-01-04T02:54:50;24.93;;;12.67;;
5167;SDS011;2603;48.918;8.980;2023-01-04T02:57:21;56.00;;;21.90;;
5167;SDS011;2603;48.918;8.980;2023-01-04T03:00:05;50.10;;;20.20;;
5167;SDS011;2603;48.918;8.980;2023-01-04T03:02:43;35.33;;;16.20;;
5167;SDS011;2603;48.918;8.980;2023-01-04T03:05:35;28.33;;;13.10;;
5167;SDS011;2603;48.918;8.980;2023-01-04T03:08:26;18.03;;;10.80;;
5167;SDS011;2603;48.918;8.980;2023-01-04T03:10:57;16.20;;;11.30;;
5167;SDS011;2603;48.918;8.980;2023-01-04T03:13:28;18.00;;;9.87;;
5167;SDS011;2603;48.918;8.980;2023-01-04T03:15:56;15.20;;;8.93;;
5167;SDS011;2603;48.918;8.980;2023-01-04T03:18:26;24.10;;;12.57;;
5167;SDS011;2603;48.918;8.980;2023-01-04T03:20:55;16.13;;;10.23;;
5167;SDS011;2603;48.918;8.980;2023-01-04T03:23:24;16.97;;;9.60;;
5167;SDS011;2603;48.918;8.980;2023-01-04T03:26:11;17.60;;;9.03;;
5167;SDS011;2603;48.918;8.980;2023-01-04T03:28:58;14.40;;;9.60;;
5167;SDS011;2603;48.918;8.980;2023-01-04T03:31:46;13.83;;;8.37;;
5167;SDS011;2603;48.918;8.980;2023-01-04T03:34:34;16.80;;;10.10;;
5167;SDS011;2603;48.918;8.980;2023-01-04T03:37:29;11.93;;;8.63;;
5167;SDS011;2603;48.918;8.980;2023-01-04T03:39:59;11.40;;;8.27;;
5167;SDS011;2603;48.918;8.980;2023-01-04T03:42:48;14.50;;;8.60;;
5167;SDS011;2603;48.918;8.980;2023-01-04T03:45:38;12.77;;;7.67;;
5167;SDS011;2603;48.918;8.980;2023-01-04T03:48:24;13.10;;;8.10;;
5167;SDS011;2603;48.918;8.980;2023-01-04T03:50:59;24.60;;;15.10;;
5167;SDS011;2603;48.918;8.980;2023-01-04T03:53:39;10.57;;;7.50;;
5167;SDS011;2603;48.918;8.980;2023-01-04T03:56:10;13.63;;;8.07;;
5167;SDS011;2603;48.918;8.980;2023-01-04T03:58:37;13.93;;;8.90;;
5167;SDS011;2603;48.918;8.980;2023-01-04T04:01:04;13.90;;;6.80;;
5167;SDS011;2603;48.918;8.980;2023-01-04T04:03:31;10.53;;;7.50;;
5167;SDS011;2603;48.918;8.980;2023-01-04T04:06:16;10.37;;;7.63;;
5167;SDS011;2603;48.918;8.980;2023-01-04T04:09:00;11.17;;;7.57;;
5167;SDS011;2603;48.918;8.980;2023-01-04T04:11:27;19.70;;;7.70;;
5167;SDS011;2603;48.918;8.980;2023-01-04T04:13:57;12.93;;;7.63;;
5167;SDS011;2603;48.918;8.980;2023-01-04T04:16:24;10.83;;;7.37;;
5167;SDS011;2603;48.918;8.980;2023-01-04T04:18:50;11.10;;;7.90;;
5167;SDS011;2603;48.918;8.980;2023-01-04T04:21:19;11.93;;;7.37;;
5167;SDS011;2603;48.918;8.980;2023-01-04T04:23:45;13.70;;;8.43;;
5167;SDS011;2603;48.918;8.980;2023-01-04T04:26:12;12.10;;;8.20;;
5167;SDS011;2603;48.918;8.980;2023-01-04T04:28:38;13.20;;;8.37;;
5167;SDS011;2603;48.918;8.980;2023-01-04T04:31:05;11.30;;;6.57;;
5167;SDS011;2603;48.918;8.980;2023-01-04T04:33:32;11.40;;;7.27;;
5167;SDS011;2603;48.918;8.980;2023-01-04T04:35:58;14.00;;;7.57;;
5167;SDS011;2603;48.918;8.980;2023-01-04T04:38:26;9.80;;;6.87;;
5167;SDS011;2603;48.918;8.980;2023-01-04T04:40:52;10.30;;;7.10;;
5167;SDS011;2603;48.918;8.980;2023-01-04T04:43:37;8.80;;;6.30;;
5167;SDS011;2603;48.918;8.980;2023-01-04T04:46:03;10.63;;;7.40;;
5167;SDS011;2603;48.918;8.980;2023-01-04T04:48:30;13.10;;;6.63;;
5167;SDS011;2603;48.918;8.980;2023-01-04T04:50:56;14.27;;;8.17;;
5167;SDS011;2603;48.918;8.980;2023-01-04T04:53:23;11.30;;;6.70;;
5167;SDS011;2603;48.918;8.980;2023-01-04T04:55:51;5.93;;;3.80;;
5167;SDS011;2603;48.918;8.980;2023-01-04T04:58:18;17.73;;;3.17;;
5167;SDS011;2603;48.918;8.980;2023-01-04T05:00:44;3.83;;;2.30;;
5167;SDS011;2603;48.918;8.980;2023-01-04T05:03:11;5.33;;;2.60;;
5167;SDS011;2603;48.918;8.980;2023-01-04T05:05:37;3.57;;;2.30;;
5167;SDS011;2603;48.918;8.980;2023-01-04T05:08:04;4.57;;;2.33;;
5167;SDS011;2603;48.918;8.980;2023-01-04T05:10:30;7.53;;;2.67;;
5167;SDS011;2603;48.918;8.980;2023-01-04T05:12:58;4.93;;;2.57;;
5167;SDS011;2603;48.918;8.980;2023-01-04T05:15:24;3.87;;;2.40;;
5167;SDS011;2603;48.918;8.980;2023-01-04T05:17:51;3.10;;;2.23;;
5167;SDS011;2603;48.918;8.980;2023-01-04T05:20:17;4.47;;;2.23;;
5167;SDS011;2603;48.918;8.980;2023-01-04T05:22:44;4.37;;;2.67;;
5167;SDS011;2603;48.918;8.980;2023-01-04T05:25:10;4.47;;;2.83;;
5167;SDS011;2603;48.918;8.980;2023-01-04T05:27:37;3.60;;;2.03;;
5167;SDS011;2603;48.918;8.980;2023-01-04T05:30:05;4.50;;;3.23;;
5167;SDS011;2603;48.918;8.980;2023-01-04T05:32:50;5.23;;;4.53;;
5167;SDS011;2603;48.918;8.980;2023-01-04T05:35:16;3.53;;;2.57;;
5167;SDS011;2603;48.918;8.980;2023-01-04T05:37:43;2.90;;;1.80;;
5167;SDS011;2603;48.918;8.980;2023-01-04T05:40:09;7.23;;;2.17;;
5167;SDS011;2603;48.918;8.980;2023-01-04T05:42:36;2.63;;;1.50;;
5167;SDS011;2603;48.918;8.980;2023-01-04T05:45:03;2.80;;;1.47;;
5167;SDS011;2603;48.918;8.980;2023-01-04T05:47:31;3.50;;;1.60;;
5167;SDS011;2603;48.918;8.980;2023-01-04T05:49:58;6.83;;;1.67;;
5167;SDS011;2603;48.918;8.980;2023-01-04T05:52:24;2.73;;;1.37;;
5167;SDS011;2603;48.918;8.980;2023-01-04T05:54:51;1.80;;;1.30;;
5167;SDS011;2603;48.918;8.980;2023-01-04T05:57:18;2.53;;;1.50;;
5167;SDS011;2603;48.918;8.980;2023-01-04T05:59:44;1.67;;;1.03;;
5167;SDS011;2603;48.918;8.980;2023-01-04T06:02:13;1.90;;;1.40;;
5167;SDS011;2603;48.918;8.980;2023-01-04T06:04:41;3.10;;;1.23;;
5167;SDS011;2603;48.918;8.980;2023-01-04T06:07:07;2.73;;;1.60;;
5167;SDS011;2603;48.918;8.980;2023-01-04T06:09:34;2.30;;;1.47;;
5167;SDS011;2603;48.918;8.980;2023-01-04T06:12:00;3.10;;;1.40;;
5167;SDS011;2603;48.918;8.980;2023-01-04T06:14:27;4.93;;;1.53;;
5167;SDS011;2603;48.918;8.980;2023-01-04T06:16:53;2.63;;;1.20;;
5167;SDS011;2603;48.918;8.980;2023-01-04T06:19:22;4.50;;;1.17;;
5167;SDS011;2603;48.918;8.980;2023-01-04T06:21:48;3.57;;;1.20;;
5167;SDS011;2603;48.918;8.980;2023-01-04T06:24:15;2.63;;;1.30;;
5167;SDS011;2603;48.918;8.980;2023-01-04T06:26:42;4.03;;;1.10;;
5167;SDS011;2603;48.918;8.980;2023-01-04T06:29:09;1.50;;;0.90;;
5167;SDS011;2603;48.918;8.980;2023-01-04T06:31:35;2.63;;;1.00;;
5167;SDS011;2603;48.918;8.980;2023-01-04T06:34:02;5.73;;;1.30;;
5167;SDS011;2603;48.918;8.980;2023-01-04T06:36:30;3.17;;;1.20;;
5167;SDS011;2603;48.918;8.980;2023-01-04T06:38:56;4.10;;;1.70;;
5167;SDS011;2603;48.918;8.980;2023-01-04T06:41:23;1.73;;;0.83;;
5167;SDS011;2603;48.918;8.980;2023-01-04T06:43:50;3.17;;;1.47;;
5167;SDS011;2603;48.918;8.980;2023-01-04T06:46:16;2.53;;;1.47;;
5167;SDS011;2603;48.918;8.980;2023-01-04T06:48:43;4.30;;;1.13;;
5167;SDS011;2603;48.918;8.980;2023-01-04T06:51:09;2.83;;;1.30;;
5167;SDS011;2603;48.918;8.980;2023-01-04T06:53:37;2.03;;;1.20;;
5167;SDS011;2603;48.918;8.980;2023-01-04T06:56:04;3.17;;;1.33;;
5167;SDS011;2603;48.918;8.980;2023-01-04T06:58:32;3.03;;;1.17;;
5167;SDS011;2603;48.918;8.980;2023-01-04T07:00:58;3.33;;;1.40;;
5167;SDS011;2603;48.918;8.980;2023-01-04T07:03:25;2.00;;;1.40;;
5167;SDS011;2603;48.918;8.980;2023-01-04T07:05:51;2.07;;;1.17;;
5167;SDS011;2603;48.918;8.980;2023-01-04T07:08:18;8.00;;;1.00;;
5167;SDS011;2603;48.918;8.980;2023-01-04T07:10:46;4.17;;;1.40;;
5167;SDS011;2603;48.918;8.980;2023-01-04T07:13:13;3.03;;;1.40;;
5167;SDS011;2603;48.918;8.980;2023-01-04T07:15:40;3.37;;;1.10;;
5167;SDS011;2603;48.918;8.980;2023-01-04T07:18:07;2.40;;;1.10;;
5167;SDS011;2603;48.918;8.980;2023-01-04T07:20:34;2.67;;;1.23;;
5167;SDS011;2603;48.918;8.980;2023-01-04T07:23:01;2.23;;;1.10;;
5167;SDS011;2603;48.918;8.980;2023-01-04T07:25:27;3.40;;;1.33;;
5167;SDS011;2603;48.918;8.980;2023-01-04T07:27:55;3.17;;;1.50;;
5167;SDS011;2603;48.918;8.980;2023-01-04T07:30:22;3.60;;;1.47;;
5167;SDS011;2603;48.918;8.980;2023-01-04T07:32:49;5.50;;;1.20;;
5167;SDS011;2603;48.918;8.980;2023-01-04T07:35:17;4.17;;;1.63;;
5167;SDS011;2603;48.918;8.980;2023-01-04T07:37:43;2.57;;;1.10;;
5167;SDS011;2603;48.918;8.980;2023-01-04T07:40:10;5.00;;;1.50;;
5167;SDS011;2603;48.918;8.980;2023-01-04T07:42:37;6.03;;;1.40;;
5167;SDS011;2603;48.918;8.980;2023-01-04T07:45:05;4.67;;;1.87;;
5167;SDS011;2603;48.918;8.980;2023-01-04T07:47:33;2.10;;;1.00;;
5167;SDS011;2603;48.918;8.980;2023-01-04T07:49:59;4.43;;;1.67;;
5167;SDS011;2603;48.918;8.980;2023-01-04T07:52:25;4.03;;;1.27;;
5167;SDS011;2603;48.918;8.980;2023-01-04T07:54:52;1.70;;;1.30;;
5167;SDS011;2603;48.918;8.980;2023-01-04T07:57:19;7.13;;;1.50;;
5167;SDS011;2603;48.918;8.980;2023-01-04T07:59:45;2.10;;;1.20;;
5167;SDS011;2603;48.918;8.980;2023-01-04T08:02:13;2.57;;;1.40;;
5167;SDS011;2603;48.918;8.980;2023-01-04T08:04:39;2.40;;;1.00;;
5167;SDS011;2603;48.918;8.980;2023-01-04T08:07:06;4.43;;;1.77;;
5167;SDS011;2603;48.918;8.980;2023-01-04T08:09:32;2.63;;;1.53;;
5167;SDS011;2603;48.918;8.980;2023-01-04T08:11:59;8.97;;;1.90;;
5167;SDS011;2603;48.918;8.980;2023-01-04T08:14:25;6.10;;;1.97;;
5167;SDS011;2603;48.918;8.980;2023-01-04T08:16:52;3.83;;;1.73;;
5167;SDS011;2603;48.918;8.980;2023-01-04T08:19:20;2.40;;;1.33;;
5167;SDS011;2603;48.918;8.980;2023-01-04T08:21:47;2.83;;;1.73;;
5167;SDS011;2603;48.918;8.980;2023-01-04T08:24:15;2.20;;;1.17;;
5167;SDS011;2603;48.918;8.980;2023-01-04T08:26:43;2.27;;;1.43;;
5167;SDS011;2603;48.918;8.980;2023-01-04T08:29:09;5.83;;;1.13;;
5167;SDS011;2603;48.918;8.980;2023-01-04T08:31:37;3.97;;;1.40;;
5167;SDS011;2603;48.918;8.980;2023-01-04T08:34:05;4.00;;;1.20;;
5167;SDS011;2603;48.918;8.980;2023-01-04T08:36:34;3.20;;;1.40;;
5167;SDS011;2603;48.918;8.980;2023-01-04T08:39:02;5.40;;;1.70;;
5167;SDS011;2603;48.918;8.980;2023-01-04T08:41:31;4.33;;;1.47;;
5167;SDS011;2603;48.918;8.980;2023-01-04T08:44:14;2.70;;;1.30;;
5167;SDS011;2603;48.918;8.980;2023-01-04T08:46:41;4.10;;;1.10;;
5167;SDS011;2603;48.918;8.980;2023-01-04T08:49:07;8.47;;;1.63;;
5167;SDS011;2603;48.918;8.980;2023-01-04T08:51:35;2.27;;;1.20;;
5167;SDS011;2603;48.918;8.980;2023-01-04T08:54:02;2.33;;;1.30;;
5167;SDS011;2603;48.918;8.980;2023-01-04T08:56:28;1.90;;;0.90;;
5167;SDS011;2603;48.918;8.980;2023-01-04T08:58:55;3.53;;;1.23;;
5167;SDS011;2603;48.918;8.980;2023-01-04T09:01:21;2.50;;;1.20;;
5167;SDS011;2603;48.918;8.980;2023-01-04T09:03:48;7.70;;;0.93;;
5167;SDS011;2603;48.918;8.980;2023-01-04T09:06:14;3.97;;;1.10;;
5167;SDS011;2603;48.918;8.980;2023-01-04T09:08:43;2.80;;;0.93;;
5167;SDS011;2603;48.918;8.980;2023-01-04T09:11:10;3.40;;;1.10;;
5167;SDS011;2603;48.918;8.980;2023-01-04T09:13:37;2.17;;;1.10;;
5167;SDS011;2603;48.918;8.980;2023-01-04T09:16:05;2.67;;;0.83;;
5167;SDS011;2603;48.918;8.980;2023-01-04T09:18:33;2.60;;;1.23;;
5167;SDS011;2603;48.918;8.980;2023-01-04T09:21:03;2.50;;;1.10;;
5167;SDS011;2603;48.918;8.980;2023-01-04T09:23:30;6.60;;;0.77;;
5167;SDS011;2603;48.918;8.980;2023-01-04T09:25:59;3.63;;;1.20;;
5167;SDS011;2603;48.918;8.980;2023-01-04T09:28:30;1.90;;;1.30;;
5167;SDS011;2603;48.918;8.980;2023-01-04T09:30:57;2.43;;;0.93;;
5167;SDS011;2603;48.918;8.980;2023-01-04T09:33:28;6.30;;;1.60;;
5167;SDS011;2603;48.918;8.980;2023-01-04T09:36:01;2.20;;;1.00;;
5167;SDS011;2603;48.918;8.980;2023-01-04T09:38:28;1.90;;;1.27;;
5167;SDS011;2603;48.918;8.980;2023-01-04T09:40:56;5.37;;;1.40;;
5167;SDS011;2603;48.918;8.980;2023-01-04T09:43:33;2.23;;;1.10;;
5167;SDS011;2603;48.918;8.980;2023-01-04T09:46:03;3.67;;;1.40;;
5167;SDS011;2603;48.918;8.980;2023-01-04T09:48:32;4.03;;;1.13;;
5167;SDS011;2603;48.918;8.980;2023-01-04T09:51:00;3.60;;;1.37;;
5167;SDS011;2603;48.918;8.980;2023-01-04T09:53:29;6.70;;;1.53;;
5167;SDS011;2603;48.918;8.980;2023-01-04T09:55:59;3.27;;;1.23;;
5167;SDS011;2603;48.918;8.980;2023-01-04T09:58:32;3.30;;;1.60;;
5167;SDS011;2603;48.918;8.980;2023-01-04T10:01:01;4.37;;;1.07;;
5167;SDS011;2603;48.918;8.980;2023-01-04T10:03:30;1.80;;;1.10;;
5167;SDS011;2603;48.918;8.980;2023-01-04T10:05:57;2.17;;;0.90;;
5167;SDS011;2603;48.918;8.980;2023-01-04T10:08:26;3.67;;;1.57;;
5167;SDS011;2603;48.918;8.980;2023-01-04T10:10:57;2.50;;;1.30;;
5167;SDS011;2603;48.918;8.980;2023-01-04T10:13:35;2.80;;;1.50;;
5167;SDS011;2603;48.918;8.980;2023-01-04T10:16:11;5.17;;;1.57;;
5167;SDS011;2603;48.918;8.980;2023-01-04T10:18:42;2.37;;;1.10;;
5167;SDS011;2603;48.918;8.980;2023-01-04T10:21:20;5.73;;;1.50;;
5167;SDS011;2603;48.918;8.980;2023-01-04T10:24:12;3.40;;;2.03;;
5167;SDS011;2603;48.918;8.980;2023-01-04T10:26:49;2.90;;;1.30;;
5167;SDS011;2603;48.918;8.980;2023-01-04T10:29:33;2.77;;;1.50;;
5167;SDS011;2603;48.918;8.980;2023-01-04T10:32:05;3.80;;;1.17;;
5167;SDS011;2603;48.918;8.980;2023-01-04T10:34:41;4.13;;;1.13;;
5167;SDS011;2603;48.918;8.980;2023-01-04T10:37:10;3.20;;;1.83;;
5167;SDS011;2603;48.918;8.980;2023-01-04T10:39:38;2.20;;;1.13;;
5167;SDS011;2603;48.918;8.980;2023-01-04T10:42:08;2.20;;;1.00;;
5167;SDS011;2603;48.918;8.980;2023-01-04T10:44:40;2.87;;;1.20;;
5167;SDS011;2603;48.918;8.980;2023-01-04T10:47:10;1.80;;;0.90;;
5167;SDS011;2603;48.918;8.980;2023-01-04T10:49:40;3.17;;;1.00;;
5167;SDS011;2603;48.918;8.980;2023-01-04T10:52:09;3.90;;;1.03;;
5167;SDS011;2603;48.918;8.980;2023-01-04T10:54:40;4.50;;;1.40;;
5167;SDS011;2603;48.918;8.980;2023-01-04T10:57:14;3.33;;;1.20;;
5167;SDS011;2603;48.918;8.980;2023-01-04T10:59:44;2.90;;;1.57;;
5167;SDS011;2603;48.918;8.980;2023-01-04T11:02:16;5.67;;;1.30;;
5167;SDS011;2603;48.918;8.980;2023-01-04T11:04:46;3.40;;;1.30;;
5167;SDS011;2603;48.918;8.980;2023-01-04T11:07:17;4.10;;;1.37;;
5167;SDS011;2603;48.918;8.980;2023-01-04T11:09:47;2.77;;;1.00;;
5167;SDS011;2603;48.918;8.980;2023-01-04T11:12:18;4.70;;;1.00;;
5167;SDS011;2603;48.918;8.980;2023-01-04T11:14:47;2.27;;;0.93;;
5167;SDS011;2603;48.918;8.980;2023-01-04T11:17:13;1.80;;;1.17;;
5167;SDS011;2603;48.918;8.980;2023-01-04T11:19:40;6.10;;;1.00;;
5167;SDS011;2603;48.918;8.980;2023-01-04T11:22:09;2.13;;;1.10;;
5167;SDS011;2603;48.918;8.980;2023-01-04T11:24:37;5.83;;;1.60;;
5167;SDS011;2603;48.918;8.980;2023-01-04T11:27:06;3.20;;;1.10;;
5167;SDS011;2603;48.918;8.980;2023-01-04T11:29:39;5.53;;;1.20;;
5167;SDS011;2603;48.918;8.980;2023-01-04T11:32:13;2.53;;;1.03;;
5167;SDS011;2603;48.918;8.980;2023-01-04T11:34:43;2.77;;;1.40;;
5167;SDS011;2603;48.918;8.980;2023-01-04T11:37:21;4.63;;;1.83;;
5167;SDS011;2603;48.918;8.980;2023-01-04T11:39:49;2.80;;;1.60;;
5167;SDS011;2603;48.918;8.980;2023-01-04T11:42:18;4.87;;;1.97;;
5167;SDS011;2603;48.918;8.980;2023-01-04T11:44:47;8.10;;;2.73;;
5167;SDS011;2603;48.918;8.980;2023-01-04T11:47:23;4.37;;;1.80;;
5167;SDS011;2603;48.918;8.980;2023-01-04T11:49:49;3.57;;;1.90;;
5167;SDS011;2603;48.918;8.980;2023-01-04T11:52:27;2.50;;;1.40;;
5167;SDS011;2603;48.918;8.980;2023-01-04T11:54:54;2.53;;;1.40;;
5167;SDS011;2603;48.918;8.980;2023-01-04T11:57:21;4.77;;;2.00;;
5167;SDS011;2603;48.918;8.980;2023-01-04T11:59:50;3.67;;;1.27;;
5167;SDS011;2603;48.918;8.980;2023-01-04T12:02:32;2.83;;;1.40;;
5167;SDS011;2603;48.918;8.980;2023-01-04T12:04:59;5.93;;;2.13;;
5167;SDS011;2603;48.918;8.980;2023-01-04T12:07:29;3.50;;;2.03;;
5167;SDS011;2603;48.918;8.980;2023-01-04T12:09:56;3.60;;;1.50;;
5167;SDS011;2603;48.918;8.980;2023-01-04T12:12:24;5.50;;;2.00;;
5167;SDS011;2603;48.918;8.980;2023-01-04T12:14:55;4.80;;;1.57;;
5167;SDS011;2603;48.918;8.980;2023-01-04T12:17:26;1.93;;;1.13;;
5167;SDS011;2603;48.918;8.980;2023-01-04T12:19:56;5.20;;;3.00;;
5167;SDS011;2603;48.918;8.980;2023-01-04T12:22:23;3.93;;;1.83;;
5167;SDS011;2603;48.918;8.980;2023-01-04T12:24:51;5.53;;;2.50;;
5167;SDS011;2603;48.918;8.980;2023-01-04T12:27:18;6.97;;;3.80;;
5167;SDS011;2603;48.918;8.980;2023-01-04T12:29:53;4.77;;;2.73;;
5167;SDS011;2603;48.918;8.980;2023-01-04T12:32:39;3.70;;;1.90;;
5167;SDS011;2603;48.918;8.980;2023-01-04T12:47:42;4.30;;;2.07;;
5167;SDS011;2603;48.918;8.980;2023-01-04T12:50:28;5.80;;;1.47;;
5167;SDS011;2603;48.918;8.980;2023-01-04T12:52:58;4.60;;;1.50;;
5167;SDS011;2603;48.918;8.980;2023-01-04T12:58:37;2.13;;;1.10;;
5167;SDS011;2603;48.918;8.980;2023-01-04T13:01:08;5.50;;;1.30;;
5167;SDS011;2603;48.918;8.980;2023-01-04T13:03:47;4.20;;;1.20;;
5167;SDS011;2603;48.918;8.980;2023-01-04T13:06:16;4.53;;;1.30;;
5167;SDS011;2603;48.918;8.980;2023-01-04T13:08:45;2.83;;;1.47;;
5167;SDS011;2603;48.918;8.980;2023-01-04T13:11:17;5.83;;;1.30;;
5167;SDS011;2603;48.918;8.980;2023-01-04T13:13:54;12.80;;;2.03;;
5167;SDS011;2603;48.918;8.980;2023-01-04T13:16:26;3.73;;;1.37;;
5167;SDS011;2603;48.918;8.980;2023-01-04T13:18:58;4.90;;;1.27;;
5167;SDS011;2603;48.918;8.980;2023-01-04T13:21:27;3.20;;;1.30;;
5167;SDS011;2603;48.918;8.980;2023-01-04T13:23:55;5.57;;;1.97;;
5167;SDS011;2603;48.918;8.980;2023-01-04T13:29:11;6.60;;;2.70;;
5167;SDS011;2603;48.918;8.980;2023-01-04T13:31:44;5.33;;;2.37;;
5167;SDS011;2603;48.918;8.980;2023-01-04T13:34:17;4.30;;;2.23;;
5167;SDS011;2603;48.918;8.980;2023-01-04T13:36:51;3.33;;;1.90;;
5167;SDS011;2603;48.918;8.980;2023-01-04T13:39:19;1.70;;;1.10;;
5167;SDS011;2603;48.918;8.980;2023-01-04T13:41:45;2.60;;;1.30;;
5167;SDS011;2603;48.918;8.980;2023-01-04T13:44:14;1.87;;;1.20;;
5167;SDS011;2603;48.918;8.980;2023-01-04T13:46:46;1.80;;;1.10;;
5167;SDS011;2603;48.918;8.980;2023-01-04T13:49:14;2.63;;;1.57;;
5167;SDS011;2603;48.918;8.980;2023-01-04T13:51:41;2.63;;;1.27;;
5167;SDS011;2603;48.918;8.980;2023-01-04T13:54:16;3.00;;;1.60;;
5167;SDS011;2603;48.918;8.980;2023-01-04T13:56:43;3.87;;;1.53;;
5167;SDS011;2603;48.918;8.980;2023-01-04T13:59:10;3.53;;;1.67;;
5167;SDS011;2603;48.918;8.980;2023-01-04T14:01:37;2.87;;;1.20;;
5167;SDS011;2603;48.918;8.980;2023-01-04T14:04:12;1.80;;;0.80;;
5167;SDS011;2603;48.918;8.980;2023-01-04T14:06:40;1.90;;;1.00;;
5167;SDS011;2603;48.918;8.980;2023-01-04T14:09:12;2.00;;;1.00;;
5167;SDS011;2603;48.918;8.980;2023-01-04T14:11:41;2.90;;;1.30;;
5167;SDS011;2603;48.918;8.980;2023-01-04T14:14:28;5.33;;;1.87;;
5167;SDS011;2603;48.918;8.980;2023-01-04T14:19:43;3.40;;;1.10;;
5167;SDS011;2603;48.918;8.980;2023-01-04T14:22:24;2.13;;;1.33;;
5167;SDS011;2603;48.918;8.980;2023-01-04T14:25:00;2.10;;;1.23;;
5167;SDS011;2603;48.918;8.980;2023-01-04T14:27:34;6.13;;;1.57;;
5167;SDS011;2603;48.918;8.980;2023-01-04T14:30:12;2.80;;;1.40;;
5167;SDS011;2603;48.918;8.980;2023-01-04T14:32:40;3.53;;;1.50;;
5167;SDS011;2603;48.918;8.980;2023-01-04T14:35:11;3.70;;;1.97;;
5167;SDS011;2603;48.918;8.980;2023-01-04T14:37:39;1.30;;;0.80;;
5167;SDS011;2603;48.918;8.980;2023-01-04T14:40:12;3.13;;;1.13;;
5167;SDS011;2603;48.918;8.980;2023-01-04T14:42:39;3.77;;;1.13;;
5167;SDS011;2603;48.918;8.980;2023-01-04T14:45:07;1.87;;;0.83;;
5167;SDS011;2603;48.918;8.980;2023-01-04T14:47:37;2.00;;;1.30;;
5167;SDS011;2603;48.918;8.980;2023-01-04T14:50:03;3.00;;;1.20;;
5167;SDS011;2603;48.918;8.980;2023-01-04T14:52:32;2.63;;;0.97;;
5167;SDS011;2603;48.918;8.980;2023-01-04T14:54:58;3.50;;;1.63;;
5167;SDS011;2603;48.918;8.980;2023-01-04T14:57:28;3.67;;;1.33;;
5167;SDS011;2603;48.918;8.980;2023-01-04T14:59:55;2.57;;;1.20;;
5167;SDS011;2603;48.918;8.980;2023-01-04T15:02:22;2.93;;;1.20;;
5167;SDS011;2603;48.918;8.980;2023-01-04T15:04:50;4.67;;;2.00;;
5167;SDS011;2603;48.918;8.980;2023-01-04T15:07:30;3.90;;;2.50;;
5167;SDS011;2603;48.918;8.980;2023-01-04T15:10:00;2.87;;;1.63;;
5167;SDS011;2603;48.918;8.980;2023-01-04T15:12:26;3.20;;;1.80;;
5167;SDS011;2603;48.918;8.980;2023-01-04T15:14:53;2.13;;;1.30;;
5167;SDS011;2603;48.918;8.980;2023-01-04T15:17:19;1.87;;;1.17;;
5167;SDS011;2603;48.918;8.980;2023-01-04T15:19:46;4.07;;;1.10;;
5167;SDS011;2603;48.918;8.980;2023-01-04T15:22:13;6.57;;;3.20;;
5167;SDS011;2603;48.918;8.980;2023-01-04T15:24:40;6.53;;;2.27;;
5167;SDS011;2603;48.918;8.980;2023-01-04T15:27:08;4.30;;;2.47;;
5167;SDS011;2603;48.918;8.980;2023-01-04T15:29:35;3.40;;;1.90;;
5167;SDS011;2603;48.918;8.980;2023-01-04T15:32:01;2.60;;;1.60;;
5167;SDS011;2603;48.918;8.980;2023-01-04T15:34:28;5.40;;;2.03;;
5167;SDS011;2603;48.918;8.980;2023-01-04T15:36:54;2.23;;;1.57;;
5167;SDS011;2603;48.918;8.980;2023-01-04T15:39:21;5.47;;;2.10;;
5167;SDS011;2603;48.918;8.980;2023-01-04T15:41:48;7.00;;;3.30;;
5167;SDS011;2603;48.918;8.980;2023-01-04T15:44:32;5.10;;;2.53;;
5167;SDS011;2603;48.918;8.980;2023-01-04T15:46:59;5.03;;;2.23;;
5167;SDS011;2603;48.918;8.980;2023-01-04T15:49:27;7.90;;;3.00;;